createdAt,value
2018-10-19T00:01:27.344Z,51.13
2018-10-19T00:03:54.774Z,53.20
2018-10-19T00:06:22.227Z,56.87
2018-10-19T00:08:49.657Z,57.70
2018-10-19T00:11:17.103Z,56.97
2018-10-19T00:13:44.546Z,58.17
2018-10-19T00:16:11.923Z,59.23
2018-10-19T00:18:39.266Z,62.80
2018-10-19T00:21:06.684Z,61.00
2018-10-19T00:23:34.013Z,58.87
2018-10-19T00:26:01.336Z,61.10
2018-10-19T00:28:28.736Z,58.37
2018-10-19T00:30:56.041Z,62.20
2018-10-19T00:33:23.543Z,60.63
2018-10-19T00:35:50.963Z,61.83
2018-10-19T00:38:18.389Z,67.03
2018-10-19T00:40:45.930Z,66.90
2018-10-19T00:43:13.392Z,68.27
2018-10-19T00:45:45.167Z,63.63
2018-10-19T00:48:15.108Z,66.63
2018-10-19T00:50:42.572Z,66.80
2018-10-19T00:53:10.884Z,64.47
2018-10-19T00:55:38.675Z,63.27
2018-10-19T00:58:06.233Z,62.03
2018-10-19T01:00:34.397Z,69.97
2018-10-19T01:03:01.920Z,63.83
2018-10-19T01:05:29.341Z,68.97
2018-10-19T01:07:56.794Z,62.57
2018-10-19T01:10:24.772Z,63.93
2018-10-19T01:12:54.996Z,61.13
2018-10-19T01:15:22.499Z,63.33
2018-10-19T01:17:50.021Z,65.97
2018-10-19T01:20:17.429Z,65.37
2018-10-19T01:22:44.857Z,65.97
2018-10-19T01:25:12.280Z,65.67
2018-10-19T01:27:39.642Z,67.80
2018-10-19T01:30:07.799Z,64.23
2018-10-19T01:32:35.536Z,66.30
2018-10-19T01:35:02.989Z,64.20
2018-10-19T01:37:30.428Z,71.20
2018-10-19T01:39:57.821Z,65.80
2018-10-19T01:42:25.224Z,68.67
2018-10-19T01:44:52.688Z,68.37
2018-10-19T01:47:20.161Z,70.13
2018-10-19T01:49:47.685Z,68.27
2018-10-19T01:52:15.086Z,65.97
2018-10-19T01:54:42.551Z,66.03
2018-10-19T01:57:10.034Z,69.37
2018-10-19T01:59:37.392Z,67.80
2018-10-19T02:02:05.179Z,67.77
2018-10-19T02:04:32.692Z,72.30
2018-10-19T02:07:00.105Z,70.17
2018-10-19T02:09:27.523Z,71.17
2018-10-19T02:11:54.933Z,66.90
2018-10-19T02:14:22.386Z,75.60
2018-10-19T02:16:49.857Z,73.00
2018-10-19T02:19:17.295Z,72.93
2018-10-19T02:21:44.748Z,70.27
2018-10-19T02:24:12.173Z,74.90
2018-10-19T02:26:39.923Z,69.27
2018-10-19T02:29:07.387Z,64.97
2018-10-19T02:31:34.771Z,73.23
2018-10-19T02:34:02.233Z,75.17
2018-10-19T02:36:29.689Z,66.47
2018-10-19T02:38:57.191Z,74.57
2018-10-19T02:41:24.512Z,76.63
2018-10-19T02:43:51.904Z,77.37
2018-10-19T02:46:19.359Z,86.97
2018-10-19T02:48:46.732Z,85.83
2018-10-19T02:51:14.225Z,78.40
2018-10-19T02:53:41.579Z,79.70
2018-10-19T02:56:09.009Z,79.30
2018-10-19T02:58:36.405Z,73.47
2018-10-19T03:01:03.949Z,75.20
2018-10-19T03:03:31.353Z,81.07
2018-10-19T03:05:58.814Z,75.23
2018-10-19T03:08:26.188Z,77.30
2018-10-19T03:10:53.796Z,78.27
2018-10-19T03:13:21.177Z,79.33
2018-10-19T03:15:48.662Z,78.43
2018-10-19T03:18:16.087Z,75.03
2018-10-19T03:20:43.502Z,79.47
2018-10-19T03:23:10.991Z,75.57
2018-10-19T03:25:38.372Z,72.73
2018-10-19T03:28:05.783Z,77.03
2018-10-19T03:30:33.174Z,84.37
2018-10-19T03:33:00.593Z,76.53
2018-10-19T03:35:28.020Z,79.63
2018-10-19T03:37:55.399Z,79.07
2018-10-19T03:40:22.787Z,77.40
2018-10-19T03:42:50.232Z,85.23
2018-10-19T03:45:17.687Z,82.33
2018-10-19T03:47:45.063Z,90.23
2018-10-19T03:50:12.494Z,88.83
2018-10-19T03:52:39.912Z,87.87
2018-10-19T03:55:07.338Z,87.33
2018-10-19T03:57:34.787Z,86.00
2018-10-19T04:00:02.188Z,88.40
2018-10-19T04:02:29.573Z,85.10
2018-10-19T04:04:56.988Z,88.80
2018-10-19T04:07:24.440Z,78.80
2018-10-19T04:09:51.811Z,83.87
2018-10-19T04:12:19.224Z,92.47
2018-10-19T04:14:46.636Z,93.50
2018-10-19T04:17:14.138Z,83.10
2018-10-19T04:19:41.577Z,84.33
2018-10-19T04:22:08.989Z,85.37
2018-10-19T04:24:36.459Z,86.83
2018-10-19T04:27:03.941Z,85.27
2018-10-19T04:29:31.309Z,85.20
2018-10-19T04:31:58.714Z,90.83
2018-10-19T04:34:26.133Z,96.37
2018-10-19T04:37:00.208Z,93.90
2018-10-19T04:39:27.619Z,90.77
2018-10-19T04:41:55.250Z,93.17
2018-10-19T04:44:22.495Z,101.13
2018-10-19T04:46:49.880Z,90.10
2018-10-19T04:49:17.347Z,95.07
2018-10-19T04:51:44.747Z,96.17
2018-10-19T04:54:12.198Z,96.63
2018-10-19T04:56:39.615Z,100.17
2018-10-19T04:59:07.133Z,97.63
2018-10-19T05:01:34.505Z,90.23
2018-10-19T05:04:01.953Z,70.67
2018-10-19T05:06:29.393Z,74.17
2018-10-19T05:08:56.784Z,73.67
2018-10-19T05:11:24.202Z,64.37
2018-10-19T05:13:51.655Z,74.10
2018-10-19T05:16:18.999Z,75.40
2018-10-19T05:18:46.477Z,75.63
2018-10-19T05:21:13.875Z,69.60
2018-10-19T05:23:41.268Z,84.50
2018-10-19T05:26:08.839Z,81.13
2018-10-19T05:28:36.073Z,87.60
2018-10-19T05:31:03.595Z,89.07
2018-10-19T05:33:30.948Z,87.23
2018-10-19T05:35:58.408Z,91.53
2018-10-19T05:38:25.845Z,93.20
2018-10-19T05:40:53.361Z,90.27
2018-10-19T05:43:20.773Z,89.67
2018-10-19T05:45:48.179Z,91.07
2018-10-19T05:48:15.619Z,64.23
2018-10-19T05:50:42.999Z,51.70
2018-10-19T05:53:10.472Z,52.63
2018-10-19T05:55:37.833Z,53.03
2018-10-19T05:58:05.301Z,54.03
2018-10-19T06:00:32.718Z,52.60
2018-10-19T06:03:00.144Z,58.17
2018-10-19T06:05:27.533Z,59.63
2018-10-19T06:07:54.975Z,61.80
2018-10-19T06:10:22.370Z,68.37
2018-10-19T06:12:49.793Z,63.40
2018-10-19T06:15:17.199Z,64.07
2018-10-19T06:17:44.598Z,65.90
2018-10-19T06:20:12.186Z,74.60
2018-10-19T06:22:39.444Z,90.57
2018-10-19T06:25:06.904Z,91.17
2018-10-19T06:27:34.372Z,80.03
2018-10-19T06:30:01.924Z,92.57
2018-10-19T06:32:29.294Z,93.37
2018-10-19T06:34:56.743Z,76.27
2018-10-19T06:37:24.156Z,77.73
2018-10-19T06:39:51.674Z,89.17
2018-10-19T06:42:19.289Z,88.20
2018-10-19T06:44:46.725Z,95.73
2018-10-19T06:47:14.290Z,104.93
2018-10-19T06:49:41.679Z,99.50
2018-10-19T06:52:09.097Z,98.03
2018-10-19T06:54:36.513Z,99.73
2018-10-19T06:57:04.185Z,93.67
2018-10-19T06:59:31.645Z,93.30
2018-10-19T07:01:59.093Z,92.47
2018-10-19T07:04:26.473Z,95.90
2018-10-19T07:06:53.944Z,58.70
2018-10-19T07:09:21.346Z,58.50
2018-10-19T07:11:48.819Z,56.73
2018-10-19T07:14:16.246Z,52.87
2018-10-19T07:16:43.660Z,54.50
2018-10-19T07:19:11.097Z,53.70
2018-10-19T07:21:38.615Z,56.00
2018-10-19T07:24:05.999Z,58.37
2018-10-19T07:26:33.440Z,61.13
2018-10-19T07:29:00.900Z,65.57
2018-10-19T07:31:28.356Z,77.77
2018-10-19T07:33:55.794Z,102.97
2018-10-19T07:36:23.486Z,112.47
2018-10-19T07:38:50.900Z,118.60
2018-10-19T07:41:18.297Z,121.33
2018-10-19T07:43:45.752Z,138.90
2018-10-19T07:46:13.175Z,149.03
2018-10-19T07:48:40.673Z,124.80
2018-10-19T07:51:08.125Z,120.37
2018-10-19T07:53:35.593Z,69.70
2018-10-19T07:56:03.070Z,70.77
2018-10-19T07:58:30.471Z,71.53
2018-10-19T08:00:57.936Z,87.83
2018-10-19T08:03:25.290Z,75.63
2018-10-19T08:05:52.774Z,86.07
2018-10-19T08:08:20.246Z,111.90
2018-10-19T08:10:47.631Z,100.20
2018-10-19T08:13:15.070Z,95.10
2018-10-19T08:15:42.535Z,94.67
2018-10-19T08:18:09.897Z,94.83
2018-10-19T08:20:37.380Z,95.97
2018-10-19T08:23:05.129Z,118.43
2018-10-19T08:25:32.570Z,110.43
2018-10-19T08:27:59.981Z,114.83
2018-10-19T08:30:27.405Z,119.47
2018-10-19T08:32:54.811Z,114.73
2018-10-19T08:35:22.273Z,108.47
2018-10-19T08:37:49.669Z,175.07
2018-10-19T08:40:17.140Z,159.00
2018-10-19T08:42:44.615Z,133.60
2018-10-19T08:45:12.131Z,126.43
2018-10-19T08:47:39.522Z,134.60
2018-10-19T08:50:07.389Z,130.87
2018-10-19T08:52:34.845Z,147.60
2018-10-19T08:55:02.343Z,107.47
2018-10-19T08:57:29.699Z,115.65
2018-10-19T08:59:57.222Z,116.83
2018-10-19T09:02:24.582Z,98.93
2018-10-19T09:04:51.972Z,111.57
2018-10-19T09:07:19.458Z,94.53
2018-10-19T09:09:46.914Z,93.80
2018-10-19T09:12:14.336Z,87.80
2018-10-19T09:14:48.481Z,92.53
2018-10-19T09:17:15.944Z,84.80
2018-10-19T09:19:43.275Z,81.40
2018-10-19T09:22:10.745Z,78.80
2018-10-19T09:24:38.160Z,78.37
2018-10-19T09:27:05.720Z,74.17
2018-10-19T09:29:33.220Z,70.83
2018-10-19T09:32:00.619Z,76.67
2018-10-19T09:34:28.064Z,71.40
2018-10-19T09:36:55.585Z,66.37
2018-10-19T09:39:22.925Z,64.20
2018-10-19T09:41:50.326Z,66.07
2018-10-19T09:44:17.792Z,72.20
2018-10-19T09:46:45.166Z,66.80
2018-10-19T09:49:13.589Z,63.17
2018-10-19T09:51:41.344Z,65.63
2018-10-19T09:54:09.882Z,62.60
2018-10-19T09:56:37.315Z,60.70
2018-10-19T09:59:05.101Z,61.27
2018-10-19T10:01:32.546Z,59.53
2018-10-19T10:04:00.012Z,61.57
2018-10-19T10:06:27.842Z,60.37
2018-10-19T10:08:55.604Z,61.20
2018-10-19T10:11:22.986Z,66.73
2018-10-19T10:13:50.655Z,63.30
2018-10-19T10:16:18.207Z,66.53
2018-10-19T10:18:45.681Z,60.90
2018-10-19T10:21:13.070Z,66.03
2018-10-19T10:23:41.126Z,60.40
2018-10-19T10:26:08.516Z,66.33
2018-10-19T10:28:35.910Z,68.83
2018-10-19T10:31:03.341Z,69.13
2018-10-19T10:33:30.707Z,65.23
2018-10-19T10:35:58.146Z,64.07
2018-10-19T10:38:25.540Z,65.03
2018-10-19T10:40:52.990Z,66.87
2018-10-19T10:43:20.422Z,63.03
2018-10-19T10:45:47.881Z,67.47
2018-10-19T10:48:15.305Z,71.73
2018-10-19T10:50:42.781Z,62.00
2018-10-19T10:53:11.166Z,65.60
2018-10-19T10:55:38.602Z,62.20
2018-10-19T10:58:06.207Z,57.27
2018-10-19T11:00:33.677Z,64.20
2018-10-19T11:03:01.127Z,60.60
2018-10-19T11:05:28.575Z,64.90
2018-10-19T11:07:56.063Z,59.47
2018-10-19T11:10:23.461Z,62.40
2018-10-19T11:12:50.918Z,60.00
2018-10-19T11:15:18.333Z,65.07
2018-10-19T11:17:45.895Z,66.80
2018-10-19T11:20:13.360Z,70.03
2018-10-19T11:22:40.771Z,66.43
2018-10-19T11:25:08.456Z,68.60
2018-10-19T11:27:35.945Z,89.10
2018-10-19T11:30:03.835Z,123.77
2018-10-19T11:32:31.412Z,83.53
2018-10-19T11:34:58.866Z,66.87
2018-10-19T11:37:26.280Z,61.27
2018-10-19T11:40:05.093Z,63.13
2018-10-19T11:42:32.503Z,71.53
2018-10-19T11:45:00.001Z,70.33
2018-10-19T11:47:27.381Z,65.50
2018-10-19T11:49:54.806Z,63.80
2018-10-19T11:52:22.235Z,65.30
2018-10-19T11:54:50.165Z,60.57
2018-10-19T11:57:17.616Z,56.70
2018-10-19T11:59:45.122Z,56.47
2018-10-19T12:02:12.542Z,60.37
2018-10-19T12:04:40.017Z,59.97
2018-10-19T12:07:07.555Z,56.00
2018-10-19T12:09:34.996Z,58.97
2018-10-19T12:12:02.731Z,55.40
2018-10-19T12:14:30.207Z,53.13
2018-10-19T12:16:57.782Z,52.03
2018-10-19T12:19:25.060Z,51.80
2018-10-19T12:21:52.573Z,54.15
2018-10-19T12:24:19.969Z,50.50
2018-10-19T12:26:47.439Z,47.03
2018-10-19T12:29:14.931Z,47.43
2018-10-19T12:31:42.406Z,51.07
2018-10-19T12:34:09.793Z,47.17
2018-10-19T12:36:37.246Z,44.07
2018-10-19T12:39:06.879Z,40.87
2018-10-19T12:41:34.270Z,44.27
2018-10-19T12:44:01.739Z,48.30
2018-10-19T12:46:42.572Z,39.93
2018-10-19T12:49:11.093Z,37.43
2018-10-19T12:51:38.711Z,43.00
2018-10-19T12:54:06.356Z,43.00
2018-10-19T12:56:33.697Z,38.07
2018-10-19T12:59:01.081Z,36.23
2018-10-19T13:01:29.307Z,35.90
2018-10-19T13:03:57.128Z,33.37
2018-10-19T13:06:24.576Z,35.73
2018-10-19T13:08:52.430Z,32.80
2018-10-19T13:11:19.870Z,37.33
2018-10-19T13:13:47.358Z,29.70
2018-10-19T13:16:14.829Z,30.33
2018-10-19T13:18:42.245Z,32.40
2018-10-19T13:21:09.737Z,36.87
2018-10-19T13:23:37.143Z,28.83
2018-10-19T13:26:04.601Z,36.33
2018-10-19T13:28:32.017Z,33.23
2018-10-19T13:30:59.487Z,26.93
2018-10-19T13:33:27.132Z,27.47
2018-10-19T13:35:54.592Z,27.57
2018-10-19T13:38:22.683Z,31.03
2018-10-19T13:40:50.956Z,29.27
2018-10-19T13:43:18.392Z,26.47
2018-10-19T13:45:45.871Z,26.77
2018-10-19T13:48:13.273Z,25.57
2018-10-19T13:50:40.723Z,26.60
2018-10-19T13:53:08.157Z,27.67
2018-10-19T13:55:35.622Z,28.13
2018-10-19T13:58:03.044Z,36.53
2018-10-19T14:00:30.536Z,31.07
2018-10-19T14:02:58.178Z,37.80
2018-10-19T14:05:25.675Z,35.43
2018-10-19T14:07:53.032Z,41.27
2018-10-19T14:10:20.463Z,36.77
2018-10-19T14:12:47.911Z,43.00
2018-10-19T14:15:15.415Z,34.63
2018-10-19T14:17:42.796Z,31.93
2018-10-19T14:20:11.603Z,35.33
2018-10-19T14:22:39.162Z,36.53
2018-10-19T14:25:07.966Z,34.70
2018-10-19T14:27:36.333Z,34.93
2018-10-19T14:30:04.552Z,33.37
2018-10-19T14:32:31.981Z,34.97
2018-10-19T14:34:59.420Z,33.93
2018-10-19T14:37:26.891Z,36.30
2018-10-19T14:39:54.332Z,39.87
2018-10-19T14:42:21.843Z,36.20
2018-10-19T14:44:49.229Z,38.77
2018-10-19T14:47:16.829Z,30.30
2018-10-19T14:49:44.170Z,32.37
2018-10-19T14:52:11.902Z,35.67
2018-10-19T14:54:39.464Z,36.10
2018-10-19T14:57:06.906Z,33.97
2018-10-19T14:59:34.203Z,37.30
2018-10-19T15:02:01.676Z,36.27
2018-10-19T15:04:29.107Z,32.57
2018-10-19T15:06:56.568Z,36.73
2018-10-19T15:09:24.141Z,36.47
2018-10-19T15:11:51.525Z,33.67
2018-10-19T15:14:18.912Z,32.83
2018-10-19T15:16:46.310Z,32.70
2018-10-19T15:19:13.751Z,31.47
2018-10-19T15:21:41.242Z,32.23
2018-10-19T15:24:08.765Z,33.37
2018-10-19T15:26:36.136Z,31.13
2018-10-19T15:29:03.741Z,30.67
2018-10-19T15:31:31.094Z,30.17
2018-10-19T15:33:58.553Z,32.23
2018-10-19T15:36:25.974Z,35.43
2018-10-19T15:38:53.458Z,34.57
2018-10-19T15:41:21.014Z,31.80
2018-10-19T15:43:48.475Z,32.37
2018-10-19T15:46:15.983Z,31.03
2018-10-19T15:48:43.421Z,34.23
2018-10-19T15:51:10.999Z,32.67
2018-10-19T15:53:38.432Z,33.80
2018-10-19T15:56:05.929Z,34.80
2018-10-19T15:58:33.331Z,33.23
2018-10-19T16:01:00.776Z,35.63
2018-10-19T16:03:28.258Z,39.53
2018-10-19T16:05:55.833Z,41.30
2018-10-19T16:08:23.493Z,36.70
2018-10-19T16:10:50.947Z,35.17
2018-10-19T16:13:18.428Z,43.53
2018-10-19T16:15:45.908Z,38.70
2018-10-19T16:18:13.384Z,45.73
2018-10-19T16:20:40.798Z,46.93
2018-10-19T16:23:08.269Z,49.23
2018-10-19T16:25:35.788Z,54.53
2018-10-19T16:28:03.234Z,62.90
2018-10-19T16:30:30.648Z,63.60
2018-10-19T16:32:58.137Z,67.17
2018-10-19T16:35:25.531Z,79.83
2018-10-19T16:37:52.945Z,70.93
2018-10-19T16:40:20.353Z,73.93
2018-10-19T16:42:47.882Z,76.47
2018-10-19T16:45:15.345Z,88.83
2018-10-19T16:47:42.794Z,79.30
2018-10-19T16:50:10.229Z,87.37
2018-10-19T16:52:37.775Z,84.03
2018-10-19T16:55:05.448Z,87.50
2018-10-19T16:57:33.272Z,87.80
2018-10-19T17:00:00.748Z,93.07
2018-10-19T17:02:28.250Z,88.47
2018-10-19T17:04:55.723Z,89.70
2018-10-19T17:07:23.112Z,88.47
2018-10-19T17:09:50.559Z,96.97
2018-10-19T17:12:17.995Z,101.53
2018-10-19T17:14:45.437Z,97.27
2018-10-19T17:17:12.889Z,71.27
2018-10-19T17:19:40.340Z,61.30
2018-10-19T17:22:07.749Z,55.80
2018-10-19T17:24:35.173Z,55.60
2018-10-19T17:27:02.592Z,62.03
2018-10-19T17:29:30.065Z,60.13
2018-10-19T17:31:57.513Z,60.80
2018-10-19T17:34:24.944Z,59.37
2018-10-19T17:36:52.366Z,60.57
2018-10-19T17:39:19.889Z,67.07
2018-10-19T17:41:47.322Z,66.70
2018-10-19T17:44:14.784Z,73.37
2018-10-19T17:46:42.209Z,72.80
2018-10-19T17:49:09.651Z,83.00
2018-10-19T17:51:37.084Z,95.67
2018-10-19T17:54:04.693Z,100.90
2018-10-19T17:56:32.050Z,94.00
2018-10-19T17:58:59.495Z,99.13
2018-10-19T18:01:26.959Z,100.83
2018-10-19T18:03:54.419Z,90.50
2018-10-19T18:06:22.031Z,88.63
2018-10-19T18:08:49.482Z,93.30
2018-10-19T18:11:16.969Z,90.23
2018-10-19T18:13:44.411Z,94.70
2018-10-19T18:16:11.998Z,86.70
2018-10-19T18:18:39.395Z,82.67
2018-10-19T18:21:06.900Z,87.53
2018-10-19T18:23:34.360Z,83.53
2018-10-19T18:26:01.847Z,79.50
2018-10-19T18:28:29.307Z,80.57
2018-10-19T18:30:56.819Z,81.27
2018-10-19T18:33:24.330Z,77.37
2018-10-19T18:35:51.869Z,77.70
2018-10-19T18:38:26.963Z,81.83
2018-10-19T18:40:54.409Z,79.47
2018-10-19T18:43:21.898Z,76.23
2018-10-19T18:45:49.374Z,77.97
2018-10-19T18:48:16.810Z,81.67
2018-10-19T18:50:44.345Z,76.80
2018-10-19T18:53:11.785Z,74.57
2018-10-19T18:55:39.222Z,84.30
2018-10-19T18:58:16.204Z,76.57
2018-10-19T19:00:43.674Z,79.57
2018-10-19T19:03:11.137Z,81.30
2018-10-19T19:05:38.553Z,78.67
2018-10-19T19:08:06.177Z,77.00
2018-10-19T19:10:33.588Z,77.33
2018-10-19T19:13:06.519Z,88.63
2018-10-19T19:15:33.938Z,94.07
2018-10-19T19:18:01.453Z,87.83
2018-10-19T19:20:29.988Z,93.10
2018-10-19T19:22:57.561Z,90.47
2018-10-19T19:25:30.795Z,83.33
2018-10-19T19:27:58.533Z,90.23
2018-10-19T19:30:26.091Z,91.07
2018-10-19T19:32:59.219Z,100.07
2018-10-19T19:35:26.734Z,111.77
2018-10-19T19:37:54.267Z,165.87
2018-10-19T19:40:21.764Z,197.63
2018-10-19T19:42:51.055Z,102.20
2018-10-19T19:45:18.965Z,129.33
2018-10-19T19:47:51.906Z,132.07
2018-10-19T19:50:19.401Z,128.53
2018-10-19T19:52:46.835Z,120.23
2018-10-19T19:55:14.401Z,115.80
2018-10-19T19:57:41.857Z,123.77
2018-10-19T20:00:09.384Z,126.60
2018-10-19T20:02:36.863Z,152.57
2018-10-19T20:05:04.913Z,139.37
2018-10-19T20:07:32.340Z,132.77
2018-10-19T20:09:59.865Z,132.47
2018-10-19T20:12:27.333Z,114.67
2018-10-19T20:14:54.829Z,118.63
2018-10-19T20:17:22.386Z,105.27
2018-10-19T20:19:49.874Z,115.47
2018-10-19T20:22:17.339Z,105.33
2018-10-19T20:24:44.788Z,101.13
2018-10-19T20:27:12.279Z,94.07
2018-10-19T20:29:39.731Z,95.13
2018-10-19T20:32:07.205Z,91.70
2018-10-19T20:34:34.825Z,94.37
2018-10-19T20:37:02.370Z,99.57
2018-10-19T20:39:29.840Z,92.23
2018-10-19T20:41:57.284Z,90.90
2018-10-19T20:44:24.789Z,82.63
2018-10-19T20:46:52.250Z,83.93
2018-10-19T20:49:19.732Z,85.10
2018-10-19T20:51:47.139Z,82.30
2018-10-19T20:54:14.650Z,80.07
2018-10-19T20:56:42.104Z,84.93
2018-10-19T20:59:09.662Z,82.03
2018-10-19T21:01:37.155Z,80.57
2018-10-19T21:04:04.896Z,87.00
2018-10-19T21:06:32.347Z,78.27
2018-10-19T21:08:59.765Z,75.23
2018-10-19T21:11:27.260Z,80.73
2018-10-19T21:13:54.687Z,81.30
2018-10-19T21:16:22.189Z,81.90
2018-10-19T21:18:49.729Z,78.90
2018-10-19T21:21:17.176Z,81.83
2018-10-19T21:23:44.594Z,82.67
2018-10-19T21:26:12.090Z,82.83
2018-10-19T21:28:39.571Z,82.97
2018-10-19T21:31:07.084Z,79.87
2018-10-19T21:33:34.601Z,81.33
2018-10-19T21:36:02.073Z,77.93
2018-10-19T21:38:29.460Z,76.13
2018-10-19T21:40:56.983Z,72.17
2018-10-19T21:43:24.435Z,71.40
2018-10-19T21:45:51.870Z,57.70
2018-10-19T21:48:19.293Z,57.97
2018-10-19T21:53:15.383Z,51.57
2018-10-19T21:55:42.933Z,52.73
2018-10-19T21:58:10.521Z,55.77
2018-10-19T22:00:38.059Z,54.90
2018-10-19T22:03:05.569Z,55.10
2018-10-19T22:05:33.011Z,52.70
2018-10-19T22:08:00.636Z,51.53
2018-10-19T22:10:28.017Z,56.13
2018-10-19T22:12:55.452Z,55.27
2018-10-19T22:15:22.856Z,56.00
2018-10-19T22:17:50.368Z,53.63
2018-10-19T22:20:17.814Z,51.37
2018-10-19T22:22:45.264Z,57.57
2018-10-19T22:25:12.824Z,56.93
2018-10-19T22:27:40.269Z,56.27
2018-10-19T22:30:08.086Z,63.57
2018-10-19T22:32:35.691Z,74.50
2018-10-19T22:35:03.146Z,54.57
2018-10-19T22:37:30.562Z,48.03
2018-10-19T22:39:58.039Z,46.77
2018-10-19T22:42:25.479Z,50.00
2018-10-19T22:44:52.932Z,62.73
2018-10-19T22:47:20.312Z,66.10
2018-10-19T22:49:47.775Z,76.07
2018-10-19T22:52:15.169Z,76.93
2018-10-19T22:54:42.618Z,79.70
2018-10-19T22:57:10.024Z,82.50
2018-10-19T22:59:37.505Z,87.17
2018-10-19T23:02:05.419Z,84.93
2018-10-19T23:04:32.874Z,89.63
2018-10-19T23:07:00.308Z,94.22
2018-10-19T23:09:27.783Z,75.23
2018-10-19T23:11:55.119Z,69.93
2018-10-19T23:14:22.558Z,73.00
2018-10-19T23:16:50.025Z,76.53
2018-10-19T23:19:17.475Z,77.27
2018-10-19T23:21:45.035Z,84.70
2018-10-19T23:24:12.391Z,84.70
2018-10-19T23:26:39.814Z,91.10
2018-10-19T23:29:07.224Z,93.40
2018-10-19T23:31:34.799Z,93.17
2018-10-19T23:34:02.087Z,89.83
2018-10-19T23:36:29.535Z,84.47
2018-10-19T23:38:56.922Z,77.63
2018-10-19T23:41:24.390Z,86.13
2018-10-19T23:43:51.857Z,89.10
2018-10-19T23:46:19.252Z,89.43
2018-10-19T23:48:46.691Z,91.27
2018-10-19T23:51:14.080Z,81.97
2018-10-19T23:53:41.525Z,79.20
2018-10-19T23:56:08.907Z,78.47
2018-10-19T23:58:36.321Z,75.57
